createdAt,value
2022-08-14T00:00:40.726Z,37.66
2022-08-14T00:15:43.631Z,37.11
2022-08-14T00:30:24.450Z,37.39
2022-08-14T00:45:15.472Z,37.44
2022-08-14T01:00:34.294Z,37.40
2022-08-14T01:15:04.300Z,37.90
2022-08-14T01:30:00.638Z,38.27
2022-08-14T01:44:49.908Z,38.51
2022-08-14T01:59:38.793Z,38.71
2022-08-14T02:14:32.233Z,39.34
2022-08-14T02:44:13.000Z,40.32
2022-08-14T02:59:05.473Z,40.54
2022-08-14T03:28:46.918Z,41.55
2022-08-14T03:43:37.101Z,42.54
2022-08-14T03:58:36.660Z,43.42
2022-08-14T04:13:20.593Z,44.07
2022-08-14T04:28:11.078Z,44.81
2022-08-14T04:43:20.901Z,45.03
2022-08-14T04:58:21.983Z,45.05
2022-08-14T05:13:15.702Z,44.93
2022-08-14T05:28:11.574Z,45.01
2022-08-14T05:43:07.472Z,45.54
2022-08-14T05:58:00.270Z,45.78
2022-08-14T06:12:56.555Z,45.93
2022-08-14T06:27:45.473Z,45.31
2022-08-14T06:42:37.528Z,44.85
2022-08-14T06:57:36.069Z,44.79
2022-08-14T07:12:35.999Z,44.52
2022-08-14T07:27:25.637Z,43.79
2022-08-14T07:42:19.983Z,43.31
2022-08-14T07:57:12.162Z,41.42
2022-08-14T08:12:09.272Z,40.53
2022-08-14T08:27:04.427Z,39.00
2022-08-14T08:41:57.295Z,38.82
2022-08-14T08:56:52.111Z,35.86
2022-08-14T09:11:43.250Z,34.69
2022-08-14T09:26:37.296Z,33.57
2022-08-14T09:42:20.543Z,32.57
2022-08-14T09:56:51.624Z,30.94
2022-08-14T10:11:43.390Z,30.27
2022-08-14T10:26:33.132Z,30.07
2022-08-14T10:41:31.831Z,29.67
2022-08-14T10:56:21.484Z,28.97
2022-08-14T11:11:14.330Z,27.72
2022-08-14T11:26:07.553Z,26.47
2022-08-14T11:41:00.492Z,24.88
2022-08-14T11:55:54.452Z,22.80
2022-08-14T12:10:49.154Z,23.36
2022-08-14T12:25:41.697Z,22.38
2022-08-14T12:40:35.304Z,21.31
2022-08-14T12:55:32.552Z,21.17
2022-08-14T13:10:47.853Z,21.50
2022-08-14T13:25:15.662Z,21.29
2022-08-14T13:40:07.619Z,20.70
2022-08-14T13:55:00.642Z,20.81
2022-08-14T14:09:53.316Z,20.82
2022-08-14T14:24:45.417Z,21.69
2022-08-14T14:40:50.691Z,21.35
2022-08-14T14:54:31.448Z,21.39
2022-08-14T15:09:37.898Z,21.90
2022-08-14T15:24:28.449Z,21.67
2022-08-14T15:54:11.259Z,20.84
2022-08-14T16:09:03.764Z,21.76
2022-08-14T16:23:55.801Z,21.25
2022-08-14T16:38:48.399Z,21.33
2022-08-14T16:53:40.510Z,22.99
2022-08-14T17:08:46.018Z,23.20
2022-08-14T17:23:29.917Z,23.77
2022-08-14T17:38:38.475Z,27.07
2022-08-14T17:53:09.599Z,32.35
2022-08-14T18:08:33.825Z,33.10
2022-08-14T18:22:52.459Z,34.11
2022-08-14T18:37:55.833Z,35.08
2022-08-14T18:52:35.998Z,35.04
2022-08-14T19:07:28.601Z,34.95
2022-08-14T19:22:29.536Z,35.37
2022-08-14T19:37:12.153Z,35.72
2022-08-14T19:52:03.189Z,37.32
2022-08-14T20:06:55.225Z,38.38
2022-08-14T20:22:00.758Z,38.67
2022-08-14T20:36:37.198Z,39.68
2022-08-14T20:51:59.034Z,40.44
2022-08-14T21:07:25.118Z,40.99
2022-08-14T21:21:41.434Z,41.96
2022-08-14T21:36:30.804Z,42.95
2022-08-14T21:51:56.057Z,43.77
2022-08-14T22:06:12.417Z,44.30
2022-08-14T22:21:05.710Z,45.05
2022-08-14T22:35:56.160Z,45.35
2022-08-14T22:50:49.201Z,45.81
2022-08-14T23:05:52.567Z,46.17
2022-08-14T23:20:36.367Z,46.84
2022-08-14T23:35:33.016Z,47.34
2022-08-14T23:50:34.617Z,47.61
